Weather at Bellmore Farms Airport

Public forecast

Using degrees Fahrenheit for public forecast. Weather courtesy of forecast.io.

Closest aviation weather report (METAR) to Bellmore Farms Airport

Closest report is Greeley–Weld County Airport, 17.7 nm (32.8 km) SSE. Retrieved 2020/10/28 05:56 UTC (17 minutes ago):

KGXY 280556Z AUTO 31006KT 10SM CLR M11/M13 A3013 RMK AO2 SLP269 T11061128 11022 21128 51002 FZRANO

Closest aviation forecast (TAF) to Bellmore Farms Airport

Closest forecast is Cheyenne Regional Jerry Olson Field, 27.1 nm (50.2 km) N. Retrieved 2020/10/28 06:22 UTC (0 seconds ago):

TAF KCYS 280520Z 2806/2906 28011KT P6SM SKC FM281500 33010KT P6SM SKC FM290100 28009KT P6SM SKC